Hauptseite
METAR-TAF:

METAR-TAF

Flughäfen :

Formosa, Argentinien

Breite: 26-12S, Länge: 058-14W, Höhe: 59 m

Beobachtung

Neuester Wetterbericht von vor 26 Minuten, um 11:00 UTC
Wind 4 kt aus Ost
Temperatur 21°C
Luftfeuchtigkeit 69%
Luftdruck 1013 hPa
Sichtweite 10 km oder mehr
keine Wolken unter 1500 m und keine Kumulonimbus oder Gewitterwolken

METAR: SARF 231100Z 09004KT CAVOK 21/15 Q1013

Zeit: 08:26 (11:26 UTC)

Prognose

Neuester Wetterbericht von vor 6 Stunden und 26 Minuten, um 05:00 UTC
Gültige Prognose vom 23 um 06 UTC bis 24 um 06 UTC
Wind 5 kt aus Süd
Sichtweite 10 km oder mehr
keine Wolken unter 1500 m und keine Kumulonimbus oder Gewitterwolken
Übergehend zu
vom 23 um 08 UTC bis 23 um 10 UTC
Wind 10 kt aus Nordost

TAF: SARF 230500Z 2306/2406 18005KT CAVOK TX30/2318Z TN14/2309Z BECMG 2308/2310 05010KT

Wetterbeobachtungen und Prognosen von mehr als 4000 Flughäfen (METAR und TAF Bericht).

Die verfügbaren Stationen werden durch gelbe und rote Markierungen auf der Karte dargestellt.

Führen Sie die Maus auf sie, um den Namen der Station zu sehen.

Darauf klicken, um die Beobachtung von Wetterbeobachtungen und Prognosen zu sehen.

Um die Karte zu ändern : klicken Sie auf den grünen Tasten mit einem schwarzen Kreuz Zum Vergrößern, auf den grünen Button mit einem Gedankenstrich zu verkleinern, oder auf die grünen Pfeile für benachbarte Karten.


METAR-TAF: